Time;durP1;ratioP1;P1;durP2;ratioP2;P2;SDS_P1;SDS_P2;PMS_P1;PMS_P2;Temp;Humidity;BMP_temperature;BMP_pressure;BME280_temperature;BME280_humidity;BME280_pressure;Samples;Min_cycle;Max_cycle;Signal;HPM_P1;HPM_P2
2022/01/20 00:00:16;;;;;;;;;;;4.90;89.20;;;;;;5018688;28;19920;-83
2022/01/20 00:02:42;;;;;;;;;;;4.80;89.10;;;;;;5036050;28;19956;-83
2022/01/20 00:08:03;;;;;;;;;;;4.70;89.10;;;;;;5021014;28;19967;-82
2022/01/20 00:26:56;;;;;;;;;;;4.50;89.40;;;;;;5013753;28;20105;-82
2022/01/20 00:29:29;;;;;;;;;;;4.50;89.30;;;;;;5012725;28;20492;-81
2022/01/20 00:32:07;;;;;;;;;;;4.50;89.50;;;;;;5015454;28;19922;-82
2022/01/20 00:37:29;;;;;;;;;;;4.50;89.90;;;;;;4989534;28;19918;-82
2022/01/20 00:39:55;;;;;;;;;;;4.50;89.60;;;;;;5013879;28;19914;-82
2022/01/20 00:42:21;;;;;;;;;;;4.50;89.70;;;;;;5009838;28;19909;-82
2022/01/20 00:44:47;;;;;;;;;;;4.50;89.50;;;;;;5034568;28;19914;-82
2022/01/20 00:47:13;;;;;;;;;;;4.50;89.60;;;;;;5021550;28;19917;-81
2022/01/20 00:49:39;;;;;;;;;;;4.60;89.50;;;;;;5037465;28;19920;-83
2022/01/20 00:52:05;;;;;;;;;;;4.60;89.60;;;;;;5022605;28;19965;-81
2022/01/20 00:54:30;;;;;;;;;;;4.70;89.60;;;;;;5018454;28;19936;-83
2022/01/20 00:56:56;;;;;;;;;;;4.70;89.20;;;;;;5021781;28;19932;-83
2022/01/20 00:59:22;;;;;;;;;;;4.80;88.90;;;;;;5017296;28;19914;-83
2022/01/20 01:01:47;;;;;;;;;;;4.80;89.00;;;;;;5031363;28;20252;-82
2022/01/20 01:04:13;;;;;;;;;;;4.80;89.10;;;;;;5032843;28;19913;-83
2022/01/20 01:09:30;;;;;;;;;;;4.90;89.00;;;;;;5007363;28;19923;-83
2022/01/20 01:12:03;;;;;;;;;;;4.90;89.00;;;;;;5031247;28;19973;-82
2022/01/20 01:14:31;;;;;;;;;;;4.80;88.90;;;;;;5015737;28;19917;-82
2022/01/20 01:24:37;;;;;;;;;;;4.90;88.90;;;;;;5017865;28;19914;-83
2022/01/20 01:27:03;;;;;;;;;;;4.80;89.10;;;;;;5018986;28;19913;-82
2022/01/20 01:32:06;;;;;;;;;;;4.80;89.10;;;;;;5017874;28;19917;-83
2022/01/20 01:34:34;;;;;;;;;;;4.80;89.20;;;;;;5014575;28;19981;-83
2022/01/20 01:39:35;;;;;;;;;;;4.80;89.40;;;;;;5050059;22;19933;-83
2022/01/20 01:42:24;;;;;;;;;;;;;;;;;;;;;
2022/01/20 01:45:10;;;;;;;;;;;5.00;89.00;;;;;;5032701;28;19984;-82
2022/01/20 01:47:59;;;;;;;;;;;4.90;88.90;;;;;;5034061;28;19921;-83
2022/01/20 01:50:30;;;;;;;;;;;5.00;88.80;;;;;;4998853;28;19936;-82
2022/01/20 01:59:36;;;;;;;;;;;4.90;88.40;;;;;;5019640;28;19956;-82
2022/01/20 02:02:15;;;;;;;;;;;;;;;;;;;;;
2022/01/20 02:20:15;;;;;;;;;;;4.80;88.30;;;;;;5021702;28;19921;-82
2022/01/20 02:22:47;;;;;;;;;;;4.60;88.20;;;;;;5000076;28;20266;-81
2022/01/20 02:25:52;;;;;;;;;;;4.60;88.10;;;;;;5013023;28;20031;-81
2022/01/20 02:28:30;;;;;;;;;;;;;;;;;;;;;
2022/01/20 02:31:20;;;;;;;;;;;4.60;87.50;;;;;;5032821;28;19986;-82
2022/01/20 02:34:41;;;;;;;;;;;;;;;;;;;;;
2022/01/20 02:37:21;;;;;;;;;;;4.80;87.30;;;;;;4995138;28;19980;-82
2022/01/20 02:46:26;;;;;;;;;;;4.70;87.10;;;;;;5019714;28;19920;-82
2022/01/20 02:55:19;;;;;;;;;;;4.70;87.10;;;;;;5003034;28;19937;-82
2022/01/20 02:57:44;;;;;;;;;;;4.70;87.10;;;;;;5018239;28;19956;-81
2022/01/20 03:00:22;;;;;;;;;;;4.70;86.70;;;;;;5004305;28;19913;-82
2022/01/20 03:03:49;;;;;;;;;;;4.80;86.50;;;;;;5031014;28;19987;-81
2022/01/20 03:09:58;;;;;;;;;;;4.90;86.40;;;;;;4979463;28;19925;-82
2022/01/20 03:12:26;;;;;;;;;;;5.00;86.30;;;;;;5021209;28;20029;-83
2022/01/20 03:14:54;;;;;;;;;;;5.00;86.80;;;;;;5000699;28;19917;-82
2022/01/20 03:17:32;;;;;;;;;;;;;;;;;;;;;
2022/01/20 03:19:58;;;;;;;;;;;4.80;86.90;;;;;;5020643;28;19914;-82
2022/01/20 03:22:24;;;;;;;;;;;4.80;86.90;;;;;;5010180;28;19972;-81
2022/01/20 03:24:49;;;;;;;;;;;4.80;86.80;;;;;;5012646;28;19920;-81
2022/01/20 03:27:19;;;;;;;;;;;4.70;87.00;;;;;;5009251;28;20000;-82
2022/01/20 03:29:48;;;;;;;;;;;4.60;87.10;;;;;;5013589;28;19917;-83
2022/01/20 03:32:14;;;;;;;;;;;4.70;87.00;;;;;;4998242;28;19921;-82
2022/01/20 03:34:42;;;;;;;;;;;4.60;87.00;;;;;;5015459;28;20286;-83
2022/01/20 03:37:07;;;;;;;;;;;4.70;86.70;;;;;;5021803;28;19913;-82
2022/01/20 03:39:33;;;;;;;;;;;4.60;86.80;;;;;;5005370;28;20400;-82
2022/01/20 03:42:07;;;;;;;;;;;4.60;87.00;;;;;;5028610;28;19945;-82
2022/01/20 03:44:32;;;;;;;;;;;4.60;86.90;;;;;;5010557;28;19920;-81
2022/01/20 03:47:01;;;;;;;;;;;4.60;86.50;;;;;;5031284;28;19917;-83
2022/01/20 03:49:34;;;;;;;;;;;4.60;86.80;;;;;;5007538;28;19917;-82
2022/01/20 03:51:59;;;;;;;;;;;4.60;86.80;;;;;;5004356;28;20000;-82
2022/01/20 03:54:24;;;;;;;;;;;4.60;86.70;;;;;;5013035;28;19914;-82
2022/01/20 03:56:50;;;;;;;;;;;4.60;86.30;;;;;;5019897;28;20434;-82
2022/01/20 03:59:16;;;;;;;;;;;4.50;86.30;;;;;;5001525;28;19941;-82
2022/01/20 04:01:41;;;;;;;;;;;4.50;86.80;;;;;;5022179;28;20329;-81
2022/01/20 04:04:07;;;;;;;;;;;4.50;86.30;;;;;;5004161;28;19946;-83
2022/01/20 04:06:32;;;;;;;;;;;4.50;86.40;;;;;;5019313;28;19949;-83
2022/01/20 04:08:58;;;;;;;;;;;4.50;86.30;;;;;;5017065;28;19917;-82
2022/01/20 04:11:24;;;;;;;;;;;4.50;86.20;;;;;;5000209;28;19913;-82
2022/01/20 04:13:51;;;;;;;;;;;4.60;86.20;;;;;;5005810;28;20008;-81
2022/01/20 04:16:19;;;;;;;;;;;4.60;86.60;;;;;;5004748;28;19913;-81
2022/01/20 04:18:54;;;;;;;;;;;4.60;86.20;;;;;;5010368;28;19923;-82
2022/01/20 04:21:21;;;;;;;;;;;4.70;86.10;;;;;;5011235;28;19936;-82
2022/01/20 04:23:46;;;;;;;;;;;4.70;86.20;;;;;;5004829;28;19929;-82
2022/01/20 04:26:11;;;;;;;;;;;4.70;86.40;;;;;;5009305;28;19914;-82
2022/01/20 04:28:37;;;;;;;;;;;4.70;86.10;;;;;;4999057;28;19971;-83
2022/01/20 04:31:02;;;;;;;;;;;4.60;86.20;;;;;;5018023;28;20739;-81
2022/01/20 04:33:28;;;;;;;;;;;4.60;86.20;;;;;;5004286;28;19944;-81
2022/01/20 04:35:54;;;;;;;;;;;4.50;86.80;;;;;;5004390;28;20385;-82
2022/01/20 04:38:19;;;;;;;;;;;4.50;87.10;;;;;;5002243;28;19913;-81
2022/01/20 04:40:45;;;;;;;;;;;4.60;86.90;;;;;;5000902;28;19921;-80
2022/01/20 04:43:10;;;;;;;;;;;4.40;86.90;;;;;;5006882;28;19914;-82
2022/01/20 04:45:44;;;;;;;;;;;4.50;87.40;;;;;;5001320;28;19932;-82
2022/01/20 04:48:44;;;;;;;;;;;4.50;87.10;;;;;;5001265;28;19917;-82
2022/01/20 04:59:10;;;;;;;;;;;4.60;87.00;;;;;;5018360;28;19921;-81
2022/01/20 05:01:43;;;;;;;;;;;4.60;87.30;;;;;;4997338;28;19917;-80
2022/01/20 05:04:08;;;;;;;;;;;4.60;87.50;;;;;;4997064;28;20354;-82
2022/01/20 05:06:36;;;;;;;;;;;4.60;87.20;;;;;;5002621;28;19917;-83
2022/01/20 05:09:02;;;;;;;;;;;4.70;86.90;;;;;;5000226;28;19996;-80
2022/01/20 05:11:27;;;;;;;;;;;4.80;87.30;;;;;;5004134;28;19960;-81
2022/01/20 05:13:53;;;;;;;;;;;4.70;87.00;;;;;;5006553;28;19936;-82
2022/01/20 05:16:18;;;;;;;;;;;4.70;87.00;;;;;;5004342;28;19913;-82
2022/01/20 05:18:44;;;;;;;;;;;4.60;87.20;;;;;;5004455;28;19917;-82
2022/01/20 05:21:09;;;;;;;;;;;4.60;87.50;;;;;;5007629;28;19936;-81
2022/01/20 05:23:35;;;;;;;;;;;4.60;87.90;;;;;;5007701;28;20332;-83
2022/01/20 05:26:00;;;;;;;;;;;4.60;87.70;;;;;;5006910;28;20340;-82
2022/01/20 05:28:26;;;;;;;;;;;4.60;87.40;;;;;;5010146;28;20421;-83
2022/01/20 05:30:51;;;;;;;;;;;4.50;87.40;;;;;;5004812;28;19913;-82
2022/01/20 05:33:17;;;;;;;;;;;4.60;88.10;;;;;;5002434;28;20265;-83
2022/01/20 05:35:42;;;;;;;;;;;4.60;88.00;;;;;;5002798;28;20263;-83
2022/01/20 05:38:08;;;;;;;;;;;4.60;87.70;;;;;;5014200;28;20433;-83
2022/01/20 05:40:34;;;;;;;;;;;4.50;88.50;;;;;;5005090;28;19992;-83
2022/01/20 05:43:00;;;;;;;;;;;4.60;88.80;;;;;;5007224;28;19928;-83
2022/01/20 05:45:27;;;;;;;;;;;4.60;88.30;;;;;;5006278;28;19914;-82
2022/01/20 05:48:00;;;;;;;;;;;4.60;87.30;;;;;;5022062;28;19921;-83
2022/01/20 05:50:25;;;;;;;;;;;4.20;87.30;;;;;;5004263;28;19969;-83
2022/01/20 05:52:51;;;;;;;;;;;4.00;87.50;;;;;;4996589;28;19949;-83
2022/01/20 05:55:20;;;;;;;;;;;3.90;88.30;;;;;;4997469;28;20085;-81
2022/01/20 05:57:46;;;;;;;;;;;3.80;88.60;;;;;;4998846;28;20396;-80
2022/01/20 06:00:15;;;;;;;;;;;3.90;89.30;;;;;;5001645;28;19921;-81
2022/01/20 06:05:24;;;;;;;;;;;3.70;89.20;;;;;;5014439;28;19975;-81
2022/01/20 06:07:50;;;;;;;;;;;3.70;89.70;;;;;;5009459;28;20359;-80
2022/01/20 06:10:16;;;;;;;;;;;3.80;89.50;;;;;;5011021;28;19917;-81
2022/01/20 06:12:41;;;;;;;;;;;3.90;89.90;;;;;;4993539;28;19914;-81
2022/01/20 06:15:07;;;;;;;;;;;3.90;89.40;;;;;;5012383;28;20390;-81
2022/01/20 06:17:36;;;;;;;;;;;3.90;89.40;;;;;;5009727;28;19914;-80
2022/01/20 06:20:01;;;;;;;;;;;3.90;89.40;;;;;;4993031;28;20001;-82
2022/01/20 06:22:27;;;;;;;;;;;3.80;89.10;;;;;;5009063;28;20071;-82
2022/01/20 06:24:52;;;;;;;;;;;3.80;89.30;;;;;;5004716;28;19921;-81
2022/01/20 06:27:18;;;;;;;;;;;3.80;89.50;;;;;;5011316;28;19923;-81
2022/01/20 06:29:43;;;;;;;;;;;3.90;89.30;;;;;;5008277;28;20284;-81
2022/01/20 06:32:09;;;;;;;;;;;3.90;88.90;;;;;;4991717;28;19918;-82
2022/01/20 06:34:34;;;;;;;;;;;3.90;89.00;;;;;;5009688;28;19913;-81
2022/01/20 06:37:00;;;;;;;;;;;4.00;88.70;;;;;;5009875;28;20250;-82
2022/01/20 06:39:25;;;;;;;;;;;3.80;88.00;;;;;;4993112;28;20003;-80
2022/01/20 06:41:51;;;;;;;;;;;3.90;88.10;;;;;;4994073;28;19909;-81
2022/01/20 06:44:18;;;;;;;;;;;3.80;87.50;;;;;;5007610;28;19913;-81
2022/01/20 06:46:44;;;;;;;;;;;3.80;87.40;;;;;;5000052;28;19921;-82
2022/01/20 06:49:10;;;;;;;;;;;3.80;87.60;;;;;;5030157;28;19921;-82
2022/01/20 06:51:36;;;;;;;;;;;3.80;87.40;;;;;;5004934;28;20675;-81
2022/01/20 06:54:01;;;;;;;;;;;3.70;87.20;;;;;;4994419;28;19917;-82
2022/01/20 06:56:27;;;;;;;;;;;3.60;87.20;;;;;;4996212;28;19980;-82
2022/01/20 06:58:52;;;;;;;;;;;3.60;87.70;;;;;;4995563;28;19936;-82
2022/01/20 07:01:18;;;;;;;;;;;3.60;87.60;;;;;;5012698;28;20302;-80
2022/01/20 07:03:43;;;;;;;;;;;3.70;87.40;;;;;;4993978;28;19909;-82
2022/01/20 07:06:09;;;;;;;;;;;3.70;87.20;;;;;;4994912;28;19932;-81
2022/01/20 07:08:34;;;;;;;;;;;3.70;87.50;;;;;;4992841;28;19917;-81
2022/01/20 07:11:00;;;;;;;;;;;3.80;87.00;;;;;;4994806;28;19987;-80
2022/01/20 07:13:25;;;;;;;;;;;3.80;86.50;;;;;;5009793;28;19952;-82
2022/01/20 07:15:51;;;;;;;;;;;3.90;86.50;;;;;;4994532;28;20000;-80
2022/01/20 07:18:16;;;;;;;;;;;3.90;86.70;;;;;;4992045;28;19922;-82
2022/01/20 07:20:42;;;;;;;;;;;3.90;87.00;;;;;;4993972;28;20009;-81
2022/01/20 07:23:07;;;;;;;;;;;4.00;86.90;;;;;;4995398;28;19917;-82
2022/01/20 07:25:33;;;;;;;;;;;4.00;86.10;;;;;;5014994;28;19952;-81
2022/01/20 07:27:58;;;;;;;;;;;3.90;86.60;;;;;;4994400;28;20355;-83
2022/01/20 07:30:23;;;;;;;;;;;3.90;85.70;;;;;;4995455;28;19909;-82
2022/01/20 07:32:49;;;;;;;;;;;4.00;85.40;;;;;;4997109;28;19918;-81
2022/01/20 07:35:15;;;;;;;;;;;3.80;84.70;;;;;;4996339;28;19981;-82
2022/01/20 07:37:40;;;;;;;;;;;3.80;84.20;;;;;;4995735;28;20339;-82
2022/01/20 07:40:06;;;;;;;;;;;3.60;84.90;;;;;;4995946;28;19925;-82
2022/01/20 07:42:31;;;;;;;;;;;3.60;84.90;;;;;;4996071;28;19920;-81
2022/01/20 07:44:57;;;;;;;;;;;3.70;83.90;;;;;;5012555;28;19953;-83
2022/01/20 07:47:22;;;;;;;;;;;3.70;83.90;;;;;;5015113;28;19945;-81
2022/01/20 07:49:48;;;;;;;;;;;3.80;82.00;;;;;;5011532;28;20404;-81
2022/01/20 07:52:14;;;;;;;;;;;3.90;80.90;;;;;;5012850;28;19972;-82
2022/01/20 07:54:39;;;;;;;;;;;3.70;80.70;;;;;;5005542;28;19913;-82
2022/01/20 07:57:05;;;;;;;;;;;3.80;80.80;;;;;;4999276;28;20004;-80
2022/01/20 07:59:30;;;;;;;;;;;3.60;79.10;;;;;;5012299;28;19913;-79
2022/01/20 08:01:56;;;;;;;;;;;3.50;78.70;;;;;;4989977;28;19933;-80
2022/01/20 08:04:22;;;;;;;;;;;3.30;79.70;;;;;;4996664;28;20381;-83
2022/01/20 08:06:47;;;;;;;;;;;3.20;80.80;;;;;;5013458;28;20062;-83
2022/01/20 08:09:14;;;;;;;;;;;3.20;81.10;;;;;;4998558;28;19918;-82
2022/01/20 08:11:40;;;;;;;;;;;3.10;82.70;;;;;;4996920;28;19914;-83
2022/01/20 08:14:06;;;;;;;;;;;3.10;83.00;;;;;;4996051;28;20045;-81
2022/01/20 08:16:31;;;;;;;;;;;3.10;83.50;;;;;;5008147;28;19967;-83
2022/01/20 08:18:57;;;;;;;;;;;3.00;84.30;;;;;;4996445;28;20355;-82
2022/01/20 08:21:22;;;;;;;;;;;3.00;84.90;;;;;;4995572;28;19910;-82
2022/01/20 08:23:48;;;;;;;;;;;3.00;84.70;;;;;;4995696;28;19917;-83
2022/01/20 08:26:13;;;;;;;;;;;3.10;83.70;;;;;;4994603;28;19914;-82
2022/01/20 08:28:39;;;;;;;;;;;3.20;84.50;;;;;;4995716;28;19917;-83
2022/01/20 08:31:04;;;;;;;;;;;3.40;83.00;;;;;;4995156;28;19914;-82
2022/01/20 08:33:30;;;;;;;;;;;3.60;83.00;;;;;;4992032;28;19918;-82
2022/01/20 08:35:55;;;;;;;;;;;3.60;82.40;;;;;;5012918;28;19913;-79
2022/01/20 08:38:21;;;;;;;;;;;3.90;82.90;;;;;;5009597;28;19909;-82
2022/01/20 08:40:47;;;;;;;;;;;3.90;81.90;;;;;;4995199;28;19925;-82
2022/01/20 08:43:13;;;;;;;;;;;4.00;82.00;;;;;;4993702;28;19937;-82
2022/01/20 08:45:39;;;;;;;;;;;4.10;80.40;;;;;;4995236;28;20000;-82
2022/01/20 08:48:05;;;;;;;;;;;4.10;80.60;;;;;;4996568;28;19984;-80
2022/01/20 08:50:31;;;;;;;;;;;4.10;80.50;;;;;;5000383;28;19956;-80
2022/01/20 08:52:58;;;;;;;;;;;4.10;79.20;;;;;;5018253;28;19913;-80
2022/01/20 08:55:26;;;;;;;;;;;4.10;80.40;;;;;;5010264;28;19910;-82
2022/01/20 08:57:52;;;;;;;;;;;4.20;79.30;;;;;;5001413;28;19913;-81
2022/01/20 09:00:19;;;;;;;;;;;4.10;79.10;;;;;;4994483;28;20021;-81
2022/01/20 09:02:45;;;;;;;;;;;4.10;78.90;;;;;;4994992;28;20400;-84
2022/01/20 09:05:11;;;;;;;;;;;4.10;77.80;;;;;;5013345;28;19914;-83
2022/01/20 09:07:37;;;;;;;;;;;4.10;79.40;;;;;;4997977;28;19983;-79
2022/01/20 09:10:07;;;;;;;;;;;4.10;78.90;;;;;;4997166;28;19936;-81
2022/01/20 09:17:43;;;;;;;;;;;4.10;77.90;;;;;;5019936;28;19929;-80
2022/01/20 09:20:09;;;;;;;;;;;4.10;78.10;;;;;;4995233;28;19917;-81
2022/01/20 09:22:34;;;;;;;;;;;4.00;78.20;;;;;;4998565;28;19910;-80
2022/01/20 09:25:00;;;;;;;;;;;3.80;79.50;;;;;;4995040;28;19928;-82
2022/01/20 09:27:25;;;;;;;;;;;3.80;79.70;;;;;;4996012;28;19913;-81
2022/01/20 09:29:51;;;;;;;;;;;3.60;79.90;;;;;;4994826;28;19921;-80
2022/01/20 09:32:18;;;;;;;;;;;3.50;80.80;;;;;;4998801;28;19910;-80
2022/01/20 09:34:44;;;;;;;;;;;3.60;81.10;;;;;;4996878;28;19985;-79
2022/01/20 09:37:10;;;;;;;;;;;3.70;82.30;;;;;;4998657;28;19952;-80
2022/01/20 09:39:37;;;;;;;;;;;3.90;81.60;;;;;;5014568;28;20389;-80
2022/01/20 09:42:03;;;;;;;;;;;4.00;81.30;;;;;;4999136;28;19921;-80
2022/01/20 09:44:29;;;;;;;;;;;4.00;80.20;;;;;;5017160;28;19968;-80
2022/01/20 09:46:54;;;;;;;;;;;4.10;80.60;;;;;;4997578;28;19917;-81
2022/01/20 09:49:20;;;;;;;;;;;4.10;78.90;;;;;;4996898;28;19913;-81
2022/01/20 09:51:46;;;;;;;;;;;4.30;78.70;;;;;;5000616;28;19909;-80
2022/01/20 09:54:11;;;;;;;;;;;4.30;77.70;;;;;;5015023;28;19936;-80
2022/01/20 09:56:37;;;;;;;;;;;4.30;77.20;;;;;;5012814;28;20350;-80
2022/01/20 09:59:03;;;;;;;;;;;4.30;76.90;;;;;;5013486;28;19917;-80
2022/01/20 10:01:36;;;;;;;;;;;4.30;77.70;;;;;;5013397;28;19914;-80
2022/01/20 10:04:01;;;;;;;;;;;4.40;75.70;;;;;;4995871;28;19948;-80
2022/01/20 10:06:27;;;;;;;;;;;4.30;76.60;;;;;;4995831;28;19919;-80
2022/01/20 10:09:01;;;;;;;;;;;4.40;77.30;;;;;;4977540;28;22037;-80
2022/01/20 10:11:28;;;;;;;;;;;4.50;76.50;;;;;;4995385;28;19924;-80
2022/01/20 10:13:55;;;;;;;;;;;4.60;75.70;;;;;;5007256;28;21172;-80
2022/01/20 10:16:20;;;;;;;;;;;4.50;76.50;;;;;;5012846;28;19909;-81
2022/01/20 10:18:48;;;;;;;;;;;4.60;76.10;;;;;;5030043;28;19924;-80
2022/01/20 10:21:14;;;;;;;;;;;4.60;75.30;;;;;;5030409;28;19943;-82
2022/01/20 10:23:47;;;;;;;;;;;4.60;75.50;;;;;;5012357;28;19928;-82
2022/01/20 10:26:17;;;;;;;;;;;4.60;76.00;;;;;;5003195;28;19914;-81
2022/01/20 10:28:46;;;;;;;;;;;4.60;74.50;;;;;;4997495;28;19917;-79
2022/01/20 10:31:12;;;;;;;;;;;4.60;76.10;;;;;;4989455;28;19914;-78
2022/01/20 10:33:40;;;;;;;;;;;4.70;75.00;;;;;;5012954;28;20465;-79
2022/01/20 10:36:10;;;;;;;;;;;4.70;74.70;;;;;;5011088;28;19913;-78
2022/01/20 10:38:35;;;;;;;;;;;4.70;74.80;;;;;;4999131;28;19925;-78
2022/01/20 10:41:02;;;;;;;;;;;4.80;75.00;;;;;;5012955;28;19921;-79
2022/01/20 10:43:32;;;;;;;;;;;4.80;74.90;;;;;;4982384;28;19953;-79
2022/01/20 10:46:11;;;;;;;;;;;4.80;72.70;;;;;;4994213;28;19964;-79
2022/01/20 10:48:37;;;;;;;;;;;4.80;73.70;;;;;;4994003;28;19917;-79
2022/01/20 10:51:14;;;;;;;;;;;4.70;74.40;;;;;;4992669;28;20399;-79
2022/01/20 10:53:39;;;;;;;;;;;4.60;75.00;;;;;;4994944;28;19920;-79
2022/01/20 10:56:05;;;;;;;;;;;4.80;74.90;;;;;;4997028;28;20004;-79
2022/01/20 10:58:31;;;;;;;;;;;4.80;74.80;;;;;;4995548;28;19921;-80
2022/01/20 11:00:57;;;;;;;;;;;4.80;75.00;;;;;;4993563;28;19913;-81
2022/01/20 11:03:24;;;;;;;;;;;4.70;74.80;;;;;;4996723;28;19913;-79
2022/01/20 11:05:51;;;;;;;;;;;4.60;75.60;;;;;;5013979;28;19918;-78
2022/01/20 11:08:17;;;;;;;;;;;4.70;75.50;;;;;;4994011;28;20412;-78
2022/01/20 11:10:44;;;;;;;;;;;4.70;75.20;;;;;;5011641;28;20357;-78
2022/01/20 11:13:10;;;;;;;;;;;4.70;75.00;;;;;;4985442;28;19917;-78
2022/01/20 11:15:36;;;;;;;;;;;4.80;75.00;;;;;;4994381;28;19923;-79
2022/01/20 11:18:02;;;;;;;;;;;4.80;74.50;;;;;;4995004;28;19940;-79
2022/01/20 11:20:30;;;;;;;;;;;4.70;74.90;;;;;;4994521;28;19996;-80
2022/01/20 11:22:56;;;;;;;;;;;4.60;74.60;;;;;;5011500;28;19921;-80
2022/01/20 11:25:22;;;;;;;;;;;4.60;73.80;;;;;;5014086;28;19917;-80
2022/01/20 11:27:50;;;;;;;;;;;4.60;74.90;;;;;;5017485;28;19974;-80
2022/01/20 11:30:26;;;;;;;;;;;4.60;75.00;;;;;;5012522;28;19917;-79
2022/01/20 11:33:12;;;;;;;;;;;4.80;74.60;;;;;;4994744;28;19914;-80
2022/01/20 11:35:47;;;;;;;;;;;5.00;74.30;;;;;;4998458;28;19917;-79
2022/01/20 11:38:14;;;;;;;;;;;5.10;72.80;;;;;;4997921;28;19913;-79
2022/01/20 11:40:52;;;;;;;;;;;5.10;72.40;;;;;;4995080;28;20325;-80
2022/01/20 11:43:18;;;;;;;;;;;5.10;71.20;;;;;;5014761;28;20356;-80
2022/01/20 11:45:50;;;;;;;;;;;5.10;71.10;;;;;;4993260;28;20266;-79
2022/01/20 11:48:17;;;;;;;;;;;5.10;70.80;;;;;;4991311;28;19976;-79
2022/01/20 11:50:43;;;;;;;;;;;5.00;71.00;;;;;;5011900;28;19928;-79
2022/01/20 11:53:13;;;;;;;;;;;4.90;71.50;;;;;;5011605;28;20279;-80
2022/01/20 11:55:43;;;;;;;;;;;4.90;70.40;;;;;;4995221;28;20021;-79
2022/01/20 11:58:12;;;;;;;;;;;4.80;71.20;;;;;;5013494;28;19925;-79
2022/01/20 12:00:38;;;;;;;;;;;4.80;70.50;;;;;;4995582;28;19917;-80
2022/01/20 12:03:11;;;;;;;;;;;4.90;71.30;;;;;;4996056;28;19925;-79
2022/01/20 12:05:37;;;;;;;;;;;4.90;71.90;;;;;;4995851;28;19920;-78
2022/01/20 12:08:15;;;;;;;;;;;4.90;70.90;;;;;;4994173;28;19921;-78
2022/01/20 12:10:43;;;;;;;;;;;5.00;69.80;;;;;;4997054;28;19920;-80
2022/01/20 12:13:16;;;;;;;;;;;5.00;70.40;;;;;;4993112;28;19917;-80
2022/01/20 12:15:58;;;;;;;;;;;4.90;70.70;;;;;;4991403;28;19932;-80
2022/01/20 12:18:24;;;;;;;;;;;4.80;70.40;;;;;;5000225;28;20044;-80
2022/01/20 12:20:49;;;;;;;;;;;4.90;70.70;;;;;;4998224;28;20453;-80
2022/01/20 12:23:17;;;;;;;;;;;4.90;70.10;;;;;;5018395;28;19914;-81
2022/01/20 12:25:43;;;;;;;;;;;4.90;70.20;;;;;;5025417;28;19914;-80
2022/01/20 12:28:10;;;;;;;;;;;5.00;71.10;;;;;;4998940;28;20749;-80
2022/01/20 12:30:37;;;;;;;;;;;5.10;69.90;;;;;;4997747;28;19921;-80
2022/01/20 12:33:03;;;;;;;;;;;5.20;69.50;;;;;;4999946;28;19910;-81
2022/01/20 12:35:55;;;;;;;;;;;5.20;70.80;;;;;;5014490;28;19925;-81
2022/01/20 12:38:26;;;;;;;;;;;5.20;68.50;;;;;;4994194;28;20311;-81
2022/01/20 12:41:17;;;;;;;;;;;5.20;68.50;;;;;;5019012;28;20044;-81
2022/01/20 12:43:48;;;;;;;;;;;5.00;69.80;;;;;;5025352;28;19902;-80
2022/01/20 12:46:15;;;;;;;;;;;5.00;70.20;;;;;;5012216;28;19924;-81
2022/01/20 12:48:50;;;;;;;;;;;5.10;69.40;;;;;;5003854;28;20017;-81
2022/01/20 12:51:16;;;;;;;;;;;5.10;69.90;;;;;;5010572;28;20007;-81
2022/01/20 12:53:44;;;;;;;;;;;5.20;70.40;;;;;;4999518;28;20298;-81
2022/01/20 12:56:10;;;;;;;;;;;5.20;70.40;;;;;;4998554;28;19956;-81
2022/01/20 12:58:46;;;;;;;;;;;5.20;69.40;;;;;;5001931;28;20382;-81
2022/01/20 13:01:12;;;;;;;;;;;5.00;68.80;;;;;;4994088;28;19949;-82
2022/01/20 13:03:38;;;;;;;;;;;5.10;69.50;;;;;;4999268;28;20263;-81
2022/01/20 13:06:06;;;;;;;;;;;5.20;68.20;;;;;;4996220;28;19918;-81
2022/01/20 13:08:35;;;;;;;;;;;5.20;68.50;;;;;;5010801;28;19913;-80
2022/01/20 13:11:06;;;;;;;;;;;5.20;68.30;;;;;;4997652;28;19932;-80
2022/01/20 13:13:31;;;;;;;;;;;5.20;68.80;;;;;;5004741;28;19910;-80
2022/01/20 13:15:57;;;;;;;;;;;5.20;68.70;;;;;;5003842;28;19968;-81
2022/01/20 13:18:22;;;;;;;;;;;5.30;68.50;;;;;;5028584;28;19925;-81
2022/01/20 13:20:58;;;;;;;;;;;5.30;67.00;;;;;;5001470;28;19925;-79
2022/01/20 13:26:01;;;;;;;;;;;5.50;66.60;;;;;;5005986;28;20294;-80
2022/01/20 13:28:27;;;;;;;;;;;5.50;67.70;;;;;;5007987;28;20563;-81
2022/01/20 13:30:52;;;;;;;;;;;5.50;67.80;;;;;;4989442;28;19913;-82
2022/01/20 13:33:19;;;;;;;;;;;5.60;67.60;;;;;;4992196;28;20378;-84
2022/01/20 13:35:46;;;;;;;;;;;5.50;67.50;;;;;;5004774;28;19913;-84
2022/01/20 13:38:13;;;;;;;;;;;5.50;68.60;;;;;;5010057;28;19914;-85
2022/01/20 13:40:40;;;;;;;;;;;5.50;69.20;;;;;;4991955;28;19921;-81
2022/01/20 13:45:42;;;;;;;;;;;5.40;68.50;;;;;;5011151;28;20016;-79
2022/01/20 13:48:08;;;;;;;;;;;5.20;71.10;;;;;;5007768;28;19924;-80
2022/01/20 13:50:35;;;;;;;;;;;5.00;73.20;;;;;;4995026;28;19913;-80
2022/01/20 13:53:02;;;;;;;;;;;4.70;75.60;;;;;;4996237;28;20584;-80
2022/01/20 13:55:29;;;;;;;;;;;4.50;78.10;;;;;;4994849;28;19932;-79
2022/01/20 13:57:55;;;;;;;;;;;4.40;78.50;;;;;;5012542;28;19913;-80
2022/01/20 14:00:22;;;;;;;;;;;4.10;80.10;;;;;;4993042;28;19913;-79
2022/01/20 14:02:49;;;;;;;;;;;3.90;81.90;;;;;;4995747;28;19920;-80
2022/01/20 14:05:18;;;;;;;;;;;3.80;82.40;;;;;;4997311;28;19917;-80
2022/01/20 14:07:44;;;;;;;;;;;3.70;83.60;;;;;;5013783;28;19949;-80
2022/01/20 14:10:09;;;;;;;;;;;3.70;83.40;;;;;;4994394;28;19944;-80
2022/01/20 14:12:35;;;;;;;;;;;3.60;84.00;;;;;;4991038;28;19918;-80
2022/01/20 14:15:00;;;;;;;;;;;3.60;84.20;;;;;;4994225;28;19968;-81
2022/01/20 14:17:28;;;;;;;;;;;3.60;84.10;;;;;;5001583;28;19953;-80
2022/01/20 14:19:57;;;;;;;;;;;3.70;84.00;;;;;;5007840;28;19988;-79
2022/01/20 14:22:23;;;;;;;;;;;3.70;84.20;;;;;;5022136;28;19917;-80
2022/01/20 14:24:48;;;;;;;;;;;3.70;84.00;;;;;;4997188;28;19914;-80
2022/01/20 14:27:16;;;;;;;;;;;3.60;84.10;;;;;;5015687;28;19917;-80
2022/01/20 14:29:43;;;;;;;;;;;3.50;84.20;;;;;;4996830;28;19921;-80
2022/01/20 14:32:10;;;;;;;;;;;3.50;84.40;;;;;;5017953;28;19918;-80
2022/01/20 14:34:35;;;;;;;;;;;3.50;84.70;;;;;;5017993;28;20333;-80
2022/01/20 14:37:01;;;;;;;;;;;3.50;84.00;;;;;;4999622;28;20068;-81
2022/01/20 14:39:26;;;;;;;;;;;3.40;83.60;;;;;;5011120;28;19949;-79
2022/01/20 14:41:52;;;;;;;;;;;3.40;84.50;;;;;;4994222;28;19913;-80
2022/01/20 14:44:17;;;;;;;;;;;3.30;83.90;;;;;;5010576;28;19913;-80
2022/01/20 14:46:43;;;;;;;;;;;3.30;84.40;;;;;;4993405;28;19921;-81
2022/01/20 14:49:08;;;;;;;;;;;3.50;84.30;;;;;;5010843;28;20226;-81
2022/01/20 14:51:34;;;;;;;;;;;3.50;84.20;;;;;;4993704;28;19932;-81
2022/01/20 14:53:59;;;;;;;;;;;3.60;83.80;;;;;;5006771;28;19913;-81
2022/01/20 14:56:25;;;;;;;;;;;3.60;83.80;;;;;;4988204;28;19924;-80
2022/01/20 14:58:50;;;;;;;;;;;3.60;83.40;;;;;;4988380;28;19921;-80
2022/01/20 15:01:16;;;;;;;;;;;3.60;83.40;;;;;;5003938;28;20358;-81
2022/01/20 15:03:42;;;;;;;;;;;3.50;83.60;;;;;;4991845;28;19921;-81
2022/01/20 15:06:07;;;;;;;;;;;3.40;83.90;;;;;;5002611;28;20334;-81
2022/01/20 15:08:33;;;;;;;;;;;3.40;84.50;;;;;;4990563;28;19945;-83
2022/01/20 15:10:59;;;;;;;;;;;3.40;84.40;;;;;;4996408;28;19952;-81
2022/01/20 15:13:25;;;;;;;;;;;3.40;84.60;;;;;;4992954;28;19928;-82
2022/01/20 15:15:50;;;;;;;;;;;3.30;84.90;;;;;;4996459;28;19944;-81
2022/01/20 15:18:16;;;;;;;;;;;3.30;84.70;;;;;;4990646;28;19914;-82
2022/01/20 15:20:41;;;;;;;;;;;3.30;84.60;;;;;;4991561;28;19924;-81
2022/01/20 15:23:07;;;;;;;;;;;3.30;85.00;;;;;;4990217;28;19925;-82
2022/01/20 15:25:32;;;;;;;;;;;3.50;84.40;;;;;;5012958;28;19963;-80
2022/01/20 15:27:58;;;;;;;;;;;3.50;84.20;;;;;;4997978;28;19921;-82
2022/01/20 15:30:23;;;;;;;;;;;3.50;84.50;;;;;;5005285;28;19920;-82
2022/01/20 15:32:49;;;;;;;;;;;3.60;84.90;;;;;;5002563;28;19918;-81
2022/01/20 15:35:15;;;;;;;;;;;3.60;84.00;;;;;;5000204;28;20388;-82
2022/01/20 15:37:40;;;;;;;;;;;3.60;83.40;;;;;;5023198;28;19920;-82
2022/01/20 15:40:07;;;;;;;;;;;3.60;84.10;;;;;;5024461;28;19922;-82
2022/01/20 15:42:33;;;;;;;;;;;3.60;83.50;;;;;;5018311;28;19924;-82
2022/01/20 15:45:01;;;;;;;;;;;3.70;83.80;;;;;;5002736;28;19917;-82
2022/01/20 15:47:26;;;;;;;;;;;3.80;83.80;;;;;;5019937;28;19944;-82
2022/01/20 15:49:52;;;;;;;;;;;3.90;82.60;;;;;;4998452;28;20034;-83
2022/01/20 15:52:17;;;;;;;;;;;3.80;82.60;;;;;;5027605;28;20012;-82
2022/01/20 15:54:43;;;;;;;;;;;3.80;81.60;;;;;;5002474;28;19944;-85
2022/01/20 15:57:08;;;;;;;;;;;3.80;81.30;;;;;;5003821;28;19913;-85
2022/01/20 15:59:34;;;;;;;;;;;3.80;80.70;;;;;;5018584;28;19922;-82
2022/01/20 16:02:00;;;;;;;;;;;3.80;80.40;;;;;;5002332;28;19981;-83
2022/01/20 16:04:25;;;;;;;;;;;3.80;80.10;;;;;;5025966;28;19952;-82
2022/01/20 16:06:51;;;;;;;;;;;3.80;79.70;;;;;;5015479;28;19921;-83
2022/01/20 16:09:16;;;;;;;;;;;3.80;79.70;;;;;;5015652;28;20186;-83
2022/01/20 16:11:42;;;;;;;;;;;3.80;79.10;;;;;;5012503;28;19913;-81
2022/01/20 16:14:09;;;;;;;;;;;3.60;79.40;;;;;;5016517;28;20004;-81
2022/01/20 16:16:35;;;;;;;;;;;3.60;79.10;;;;;;4998612;28;19922;-81